TAM4332 TNCC-SKCG
Flight info
| Callsign | TAM4332 |
|---|---|
| Flight time | N/A |
| Altitude | 38000 |
| Route | DATOR1K DATOR UL220 BAQ BAQ4B |
| Aircraft | A332/H-SDE3GHIJ2J3J5M1RVWXY/LB2D1 |
Departure
| Time | 2026-05-06 17:04 |
|---|---|
| Airport | Hato International Airport (TNCC) |
Arrival
| Time | N/A |
|---|---|
| Airport | Rafael Nuñez International Airport (SKCG) |
| Time | Latitude | Longitude | Altitude | Speed | Heading |
|---|---|---|---|---|---|
| 2026-05-06 16:44 | 12.18549 | -68.95808 | 47 ft | 0 kts | 192° |
| 2026-05-06 16:50 | 12.18564 | -68.95804 | 44 ft | 4 kts | 192° |
| 2026-05-06 16:50 | 12.18582 | -68.95800 | 45 ft | 4 kts | 192° |
| 2026-05-06 16:51 | 12.18617 | -68.95793 | 43 ft | 4 kts | 193° |
| 2026-05-06 16:51 | 12.18643 | -68.95786 | 43 ft | 4 kts | 201° |
| 2026-05-06 16:51 | 12.18664 | -68.95773 | 42 ft | 4 kts | 245° |
| 2026-05-06 16:51 | 12.18664 | -68.95753 | 42 ft | 4 kts | 281° |
| 2026-05-06 16:52 | 12.18660 | -68.95729 | 45 ft | 1 kts | 282° |
| 2026-05-06 16:52 | 12.18660 | -68.95728 | 43 ft | 0 kts | 282° |
| 2026-05-06 16:54 | 12.18661 | -68.95732 | 46 ft | 2 kts | 282° |
| 2026-05-06 16:54 | 12.18666 | -68.95759 | 46 ft | 6 kts | 281° |
| 2026-05-06 16:54 | 12.18678 | -68.95816 | 46 ft | 12 kts | 282° |
| 2026-05-06 16:54 | 12.18700 | -68.95924 | 47 ft | 18 kts | 282° |
| 2026-05-06 16:55 | 12.18729 | -68.96063 | 46 ft | 23 kts | 282° |
| 2026-05-06 16:55 | 12.18767 | -68.96240 | 46 ft | 28 kts | 282° |
| 2026-05-06 16:55 | 12.18808 | -68.96443 | 46 ft | 30 kts | 281° |
| 2026-05-06 16:55 | 12.18852 | -68.96658 | 45 ft | 32 kts | 282° |
| 2026-05-06 16:56 | 12.18900 | -68.96877 | 44 ft | 30 kts | 281° |
| 2026-05-06 16:56 | 12.18935 | -68.97047 | 44 ft | 25 kts | 282° |
| 2026-05-06 16:56 | 12.18972 | -68.97224 | 44 ft | 26 kts | 283° |
| 2026-05-06 16:56 | 12.19012 | -68.97413 | 43 ft | 28 kts | 282° |
| 2026-05-06 16:57 | 12.19053 | -68.97599 | 43 ft | 22 kts | 284° |
| 2026-05-06 16:57 | 12.19082 | -68.97642 | 43 ft | 5 kts | 342° |
| 2026-05-06 16:57 | 12.19113 | -68.97640 | 43 ft | 4 kts | 8° |
| 2026-05-06 16:57 | 12.19139 | -68.97635 | 43 ft | 0 kts | 11° |
| 2026-05-06 17:01 | 12.19141 | -68.97634 | 16 ft | 2 kts | 12° |
| 2026-05-06 17:01 | 12.19171 | -68.97620 | 43 ft | 8 kts | 34° |
| 2026-05-06 17:01 | 12.19205 | -68.97555 | 43 ft | 13 kts | 79° |
| 2026-05-06 17:02 | 12.19198 | -68.97442 | 44 ft | 19 kts | 101° |
| 2026-05-06 17:02 | 12.19176 | -68.97331 | 44 ft | 0 kts | 102° |
| 2026-05-06 17:03 | 12.19127 | -68.97098 | 43 ft | 76 kts | 102° |
| 2026-05-06 17:04 | 12.18960 | -68.96295 | 89 ft | 149 kts | 101° |
| 2026-05-06 17:04 | 12.18713 | -68.95172 | 869 ft | 166 kts | 102° |
| 2026-05-06 17:04 | 12.18465 | -68.93992 | 1855 ft | 175 kts | 103° |
| 2026-05-06 17:04 | 12.18201 | -68.92698 | 2261 ft | 204 kts | 103° |
| 2026-05-06 17:05 | 12.17884 | -68.91178 | 2670 ft | 231 kts | 104° |
| 2026-05-06 17:05 | 12.17411 | -68.89567 | 3407 ft | 242 kts | 120° |
| 2026-05-06 17:05 | 12.16163 | -68.88420 | 4294 ft | 250 kts | 154° |
| 2026-05-06 17:05 | 12.14412 | -68.88228 | 5125 ft | 264 kts | 188° |
| 2026-05-06 17:06 | 12.12776 | -68.89134 | 5989 ft | 278 kts | 221° |
| 2026-05-06 17:06 | 12.11778 | -68.90875 | 6894 ft | 289 kts | 245° |
| 2026-05-06 17:06 | 12.11008 | -68.92793 | 7765 ft | 292 kts | 243° |
| 2026-05-06 17:06 | 12.10078 | -68.94630 | 8591 ft | 297 kts | 236° |
| 2026-05-06 17:07 | 12.08961 | -68.96424 | 9458 ft | 301 kts | 232° |
| 2026-05-06 17:07 | 12.07728 | -68.98177 | 10219 ft | 308 kts | 230° |
| 2026-05-06 17:07 | 12.06379 | -68.99968 | 10589 ft | 330 kts | 231° |
| 2026-05-06 17:07 | 12.05366 | -69.02150 | 10978 ft | 353 kts | 257° |
| 2026-05-06 17:08 | 12.05381 | -69.04680 | 11638 ft | 363 kts | 283° |
| 2026-05-06 17:08 | 12.06372 | -69.07057 | 12336 ft | 368 kts | 300° |
| 2026-05-06 17:08 | 12.07650 | -69.09347 | 13071 ft | 373 kts | 298° |
| 2026-05-06 17:08 | 12.08804 | -69.11742 | 13831 ft | 377 kts | 294° |
| 2026-05-06 17:09 | 12.09822 | -69.14229 | 14492 ft | 381 kts | 292° |
| 2026-05-06 17:09 | 12.10749 | -69.16768 | 15181 ft | 383 kts | 290° |
| 2026-05-06 17:09 | 12.11612 | -69.19303 | 15949 ft | 382 kts | 290° |
| 2026-05-06 17:09 | 12.12456 | -69.21885 | 16679 ft | 384 kts | 290° |
| 2026-05-06 17:10 | 12.13299 | -69.24508 | 17212 ft | 391 kts | 289° |
| 2026-05-06 17:10 | 12.14134 | -69.27150 | 17993 ft | 390 kts | 290° |
| 2026-05-06 17:10 | 12.14967 | -69.29800 | 18629 ft | 392 kts | 291° |
| 2026-05-06 17:10 | 12.15802 | -69.32458 | 19241 ft | 393 kts | 289° |
| 2026-05-06 17:11 | 12.16631 | -69.35114 | 19895 ft | 392 kts | 290° |
| 2026-05-06 17:11 | 12.17465 | -69.37783 | 20450 ft | 396 kts | 291° |
| 2026-05-06 17:11 | 12.18306 | -69.40472 | 20997 ft | 398 kts | 291° |
| 2026-05-06 17:11 | 12.19149 | -69.43174 | 21571 ft | 400 kts | 290° |
| 2026-05-06 17:12 | 12.19996 | -69.45895 | 22133 ft | 402 kts | 290° |
| 2026-05-06 17:12 | 12.20846 | -69.48627 | 22691 ft | 404 kts | 290° |
| 2026-05-06 17:12 | 12.21700 | -69.51374 | 23247 ft | 406 kts | 291° |
| 2026-05-06 17:12 | 12.22559 | -69.54134 | 23744 ft | 409 kts | 289° |
| 2026-05-06 17:13 | 12.23425 | -69.56917 | 24142 ft | 412 kts | 290° |
| 2026-05-06 17:13 | 12.24294 | -69.59715 | 24622 ft | 412 kts | 291° |
| 2026-05-06 17:13 | 12.25162 | -69.62508 | 25123 ft | 412 kts | 291° |
| 2026-05-06 17:13 | 12.26033 | -69.65310 | 25506 ft | 415 kts | 290° |
| 2026-05-06 17:14 | 12.26815 | -69.68161 | 25930 ft | 418 kts | 287° |
| 2026-05-06 17:14 | 12.27516 | -69.71024 | 26328 ft | 420 kts | 286° |
| 2026-05-06 17:14 | 12.28213 | -69.73933 | 26768 ft | 422 kts | 285° |
| 2026-05-06 17:14 | 12.28914 | -69.76858 | 27126 ft | 425 kts | 285° |
| 2026-05-06 17:15 | 12.29623 | -69.79807 | 27500 ft | 427 kts | 285° |
| 2026-05-06 17:15 | 12.30331 | -69.82751 | 28080 ft | 425 kts | 284° |
| 2026-05-06 17:15 | 12.31042 | -69.85701 | 28408 ft | 429 kts | 285° |
| 2026-05-06 17:15 | 12.31753 | -69.88654 | 28958 ft | 426 kts | 285° |
| 2026-05-06 17:16 | 12.32461 | -69.91592 | 29390 ft | 427 kts | 285° |
| 2026-05-06 17:16 | 12.33178 | -69.94563 | 29573 ft | 433 kts | 284° |
| 2026-05-06 17:16 | 12.33901 | -69.97565 | 29974 ft | 434 kts | 284° |
| 2026-05-06 17:16 | 12.34627 | -70.00581 | 30124 ft | 441 kts | 284° |
| 2026-05-06 17:17 | 12.35361 | -70.03630 | 30443 ft | 441 kts | 284° |
| 2026-05-06 17:17 | 12.36093 | -70.06676 | 30836 ft | 440 kts | 284° |
| 2026-05-06 17:17 | 12.36827 | -70.09731 | 31045 ft | 444 kts | 284° |
| 2026-05-06 17:17 | 12.37563 | -70.12793 | 31363 ft | 444 kts | 284° |
| 2026-05-06 17:18 | 12.38290 | -70.15820 | 31782 ft | 442 kts | 284° |
| 2026-05-06 17:18 | 12.39037 | -70.18934 | 31929 ft | 448 kts | 284° |
| 2026-05-06 17:18 | 12.39779 | -70.22028 | 32285 ft | 447 kts | 284° |
| 2026-05-06 17:18 | 12.40522 | -70.25121 | 32498 ft | 451 kts | 284° |
| 2026-05-06 17:19 | 12.41321 | -70.28238 | 32735 ft | 453 kts | 279° |
| 2026-05-06 17:19 | 12.41358 | -70.31424 | 33391 ft | 446 kts | 262° |
| 2026-05-06 17:19 | 12.40527 | -70.34413 | 33991 ft | 442 kts | 248° |
| 2026-05-06 17:19 | 12.39160 | -70.37237 | 34276 ft | 444 kts | 243° |
| 2026-05-06 17:20 | 12.37669 | -70.40021 | 34503 ft | 445 kts | 244° |
| 2026-05-06 17:20 | 12.36271 | -70.42820 | 34944 ft | 441 kts | 246° |
| 2026-05-06 17:20 | 12.35007 | -70.45680 | 35173 ft | 442 kts | 249° |
| 2026-05-06 17:20 | 12.33875 | -70.48596 | 35493 ft | 440 kts | 251° |
| 2026-05-06 17:21 | 12.32842 | -70.51527 | 35922 ft | 436 kts | 251° |
| 2026-05-06 17:21 | 12.31860 | -70.54473 | 36083 ft | 439 kts | 253° |
| 2026-05-06 17:21 | 12.30902 | -70.57429 | 36443 ft | 436 kts | 252° |
| 2026-05-06 17:21 | 12.29954 | -70.60367 | 36824 ft | 434 kts | 253° |
| 2026-05-06 17:22 | 12.29003 | -70.63302 | 37023 ft | 435 kts | 252° |
| 2026-05-06 17:22 | 12.28061 | -70.66192 | 37355 ft | 433 kts | 252° |
| 2026-05-06 17:22 | 12.27108 | -70.69095 | 37808 ft | 429 kts | 252° |
| 2026-05-06 17:22 | 12.26151 | -70.71998 | 37953 ft | 432 kts | 252° |
| 2026-05-06 17:23 | 12.25187 | -70.74916 | 37953 ft | 434 kts | 252° |
| 2026-05-06 17:23 | 12.23255 | -70.80751 | 37956 ft | 433 kts | 252° |
| 2026-05-06 17:24 | 12.21279 | -70.86581 | 37947 ft | 432 kts | 251° |
| 2026-05-06 17:24 | 12.19267 | -70.92353 | 37948 ft | 433 kts | 251° |
| 2026-05-06 17:25 | 12.17238 | -70.98156 | 37947 ft | 434 kts | 251° |
| 2026-05-06 17:25 | 12.15212 | -71.03963 | 37948 ft | 433 kts | 251° |
| 2026-05-06 17:26 | 12.13188 | -71.09774 | 37945 ft | 434 kts | 251° |
| 2026-05-06 17:26 | 12.11230 | -71.15607 | 37953 ft | 434 kts | 252° |
| 2026-05-06 17:27 | 12.09321 | -71.21454 | 37946 ft | 434 kts | 252° |
| 2026-05-06 17:27 | 12.07409 | -71.27312 | 37948 ft | 434 kts | 252° |
| 2026-05-06 17:28 | 12.05491 | -71.33162 | 37943 ft | 434 kts | 252° |
| 2026-05-06 17:28 | 12.03577 | -71.38978 | 37940 ft | 434 kts | 252° |
| 2026-05-06 17:29 | 12.01650 | -71.44828 | 37943 ft | 435 kts | 252° |